sensor_id;sensor_type;location;lat;lon;timestamp;pressure;altitude;pressure_sealevel;temperature;humidity
27958;BME280;15295;42.658;23.374;2023-09-30T00:01:43;95029.13;;;22.56;40.27
27958;BME280;15295;42.658;23.374;2023-09-30T00:04:31;95020.16;;;22.52;40.43
27958;BME280;15295;42.658;23.374;2023-09-30T00:06:58;95017.38;;;22.52;40.53
27958;BME280;15295;42.658;23.374;2023-09-30T00:09:30;95031.59;;;22.54;40.85
27958;BME280;15295;42.658;23.374;2023-09-30T00:12:18;95040.00;;;22.63;40.53
27958;BME280;15295;42.658;23.374;2023-09-30T00:15:00;95036.31;;;22.66;40.84
27958;BME280;15295;42.658;23.374;2023-09-30T00:17:35;95042.78;;;22.63;41.02
27958;BME280;15295;42.658;23.374;2023-09-30T00:20:18;95044.78;;;22.63;41.10
27958;BME280;15295;42.658;23.374;2023-09-30T00:22:49;95023.72;;;22.53;41.14
27958;BME280;15295;42.658;23.374;2023-09-30T00:25:16;95002.22;;;22.44;40.87
27958;BME280;15295;42.658;23.374;2023-09-30T00:27:43;94993.41;;;22.37;40.94
27958;BME280;15295;42.658;23.374;2023-09-30T00:30:12;95038.78;;;22.64;40.84
27958;BME280;15295;42.658;23.374;2023-09-30T00:32:50;95040.47;;;22.62;40.98
27958;BME280;15295;42.658;23.374;2023-09-30T00:35:17;95013.19;;;22.48;41.16
27958;BME280;15295;42.658;23.374;2023-09-30T00:38:10;95031.03;;;22.68;40.96
27958;BME280;15295;42.658;23.374;2023-09-30T00:40:47;95020.34;;;22.58;41.01
27958;BME280;15295;42.658;23.374;2023-09-30T00:43:22;95001.28;;;22.47;41.22
27958;BME280;15295;42.658;23.374;2023-09-30T00:46:36;95027.63;;;22.73;41.18
27958;BME280;15295;42.658;23.374;2023-09-30T00:49:30;95021.75;;;22.62;41.14
27958;BME280;15295;42.658;23.374;2023-09-30T00:52:05;94992.16;;;22.47;41.59
27958;BME280;15295;42.658;23.374;2023-09-30T00:54:35;94998.34;;;22.51;41.75
27958;BME280;15295;42.658;23.374;2023-09-30T00:57:11;95010.09;;;22.55;41.64
27958;BME280;15295;42.658;23.374;2023-09-30T01:00:04;95020.19;;;22.61;41.55
27958;BME280;15295;42.658;23.374;2023-09-30T01:02:38;95033.53;;;22.66;41.91
27958;BME280;15295;42.658;23.374;2023-09-30T01:05:20;95024.84;;;22.64;41.61
27958;BME280;15295;42.658;23.374;2023-09-30T01:08:10;95029.81;;;22.60;41.61
27958;BME280;15295;42.658;23.374;2023-09-30T01:10:39;94990.31;;;22.35;41.33
27958;BME280;15295;42.658;23.374;2023-09-30T01:13:06;95015.66;;;22.55;41.02
27958;BME280;15295;42.658;23.374;2023-09-30T01:15:36;95018.28;;;22.58;41.38
27958;BME280;15295;42.658;23.374;2023-09-30T01:18:42;95023.75;;;22.62;41.10
27958;BME280;15295;42.658;23.374;2023-09-30T01:21:13;95026.06;;;22.63;40.77
27958;BME280;15295;42.658;23.374;2023-09-30T01:23:43;95016.94;;;22.63;40.88
27958;BME280;15295;42.658;23.374;2023-09-30T01:26:36;94997.88;;;22.52;40.97
27958;BME280;15295;42.658;23.374;2023-09-30T01:29:09;95012.94;;;22.64;40.78
27958;BME280;15295;42.658;23.374;2023-09-30T01:31:41;95008.28;;;22.61;40.15
27958;BME280;15295;42.658;23.374;2023-09-30T01:34:13;95031.03;;;22.77;40.89
27958;BME280;15295;42.658;23.374;2023-09-30T01:37:00;94995.44;;;22.63;40.35
27958;BME280;15295;42.658;23.374;2023-09-30T01:39:35;95000.41;;;22.68;40.50
27958;BME280;15295;42.658;23.374;2023-09-30T01:42:04;95018.66;;;22.78;40.86
27958;BME280;15295;42.658;23.374;2023-09-30T01:44:43;94989.25;;;22.59;40.94
27958;BME280;15295;42.658;23.374;2023-09-30T01:47:11;94987.22;;;22.51;40.88
27958;BME280;15295;42.658;23.374;2023-09-30T01:49:51;95017.88;;;22.78;40.95
27958;BME280;15295;42.658;23.374;2023-09-30T01:53:04;95015.69;;;22.82;41.09
27958;BME280;15295;42.658;23.374;2023-09-30T01:56:10;94988.28;;;22.53;41.45
27958;BME280;15295;42.658;23.374;2023-09-30T01:58:45;94980.72;;;22.63;40.73
27958;BME280;15295;42.658;23.374;2023-09-30T02:01:13;94975.63;;;22.61;39.90
27958;BME280;15295;42.658;23.374;2023-09-30T02:03:41;94986.13;;;22.57;40.60
27958;BME280;15295;42.658;23.374;2023-09-30T02:06:08;95012.94;;;22.64;40.46
27958;BME280;15295;42.658;23.374;2023-09-30T02:08:56;94991.22;;;22.50;39.94
27958;BME280;15295;42.658;23.374;2023-09-30T02:12:10;95009.63;;;22.56;39.75
27958;BME280;15295;42.658;23.374;2023-09-30T02:14:39;95001.28;;;22.47;40.02
27958;BME280;15295;42.658;23.374;2023-09-30T02:17:07;95007.94;;;22.50;40.01
27958;BME280;15295;42.658;23.374;2023-09-30T02:19:41;94993.41;;;22.37;39.74
27958;BME280;15295;42.658;23.374;2023-09-30T02:23:00;95005.00;;;22.44;40.69
27958;BME280;15295;42.658;23.374;2023-09-30T02:25:36;94957.16;;;22.09;41.45
27958;BME280;15295;42.658;23.374;2023-09-30T02:28:23;95013.03;;;22.42;41.67
27958;BME280;15295;42.658;23.374;2023-09-30T02:31:06;95001.56;;;22.31;41.95
27958;BME280;15295;42.658;23.374;2023-09-30T02:33:38;94990.91;;;22.20;41.90
27958;BME280;15295;42.658;23.374;2023-09-30T02:36:54;95013.34;;;22.26;42.05
27958;BME280;15295;42.658;23.374;2023-09-30T02:39:43;94977.41;;;22.01;41.99
27958;BME280;15295;42.658;23.374;2023-09-30T02:42:32;95012.84;;;22.18;41.90
27958;BME280;15295;42.658;23.374;2023-09-30T02:45:11;94991.00;;;21.99;41.95
27958;BME280;15295;42.658;23.374;2023-09-30T02:47:49;94962.19;;;21.75;42.13
27958;BME280;15295;42.658;23.374;2023-09-30T02:50:58;95007.72;;;21.99;42.56
27958;BME280;15295;42.658;23.374;2023-09-30T02:53:31;95010.94;;;21.88;42.39
27958;BME280;15295;42.658;23.374;2023-09-30T02:56:02;95005.22;;;21.83;42.56
27958;BME280;15295;42.658;23.374;2023-09-30T02:58:32;94976.31;;;21.49;42.57
27958;BME280;15295;42.658;23.374;2023-09-30T03:01:35;94998.75;;;21.55;42.73
27958;BME280;15295;42.658;23.374;2023-09-30T03:04:24;94975.16;;;21.29;43.30
27958;BME280;15295;42.658;23.374;2023-09-30T03:06:59;95012.63;;;21.46;43.42
27958;BME280;15295;42.658;23.374;2023-09-30T03:09:25;95004.69;;;21.35;43.21
27958;BME280;15295;42.658;23.374;2023-09-30T03:11:53;94983.91;;;21.18;43.39
27958;BME280;15295;42.658;23.374;2023-09-30T03:14:27;95003.09;;;21.25;43.35
27958;BME280;15295;42.658;23.374;2023-09-30T03:16:58;95023.56;;;21.40;43.29
27958;BME280;15295;42.658;23.374;2023-09-30T03:19:28;94997.22;;;21.23;43.46
27958;BME280;15295;42.658;23.374;2023-09-30T03:22:05;95025.41;;;21.43;43.61
27958;BME280;15295;42.658;23.374;2023-09-30T03:24:45;94980.56;;;21.23;43.44
27958;BME280;15295;42.658;23.374;2023-09-30T03:27:13;95023.56;;;21.40;43.34
27958;BME280;15295;42.658;23.374;2023-09-30T03:29:48;95002.19;;;21.28;43.22
27958;BME280;15295;42.658;23.374;2023-09-30T03:33:05;94995.09;;;21.27;43.04
27958;BME280;15295;42.658;23.374;2023-09-30T03:35:35;94989.22;;;21.25;42.82
27958;BME280;15295;42.658;23.374;2023-09-30T03:38:11;95016.75;;;21.41;43.10
27958;BME280;15295;42.658;23.374;2023-09-30T03:40:55;95011.50;;;21.43;42.69
27958;BME280;15295;42.658;23.374;2023-09-30T03:43:45;94982.34;;;21.17;43.07
27958;BME280;15295;42.658;23.374;2023-09-30T03:46:14;94992.84;;;21.13;42.93
27958;BME280;15295;42.658;23.374;2023-09-30T03:48:43;95019.16;;;21.30;43.10
27958;BME280;15295;42.658;23.374;2023-09-30T03:51:16;94995.56;;;21.04;43.16
27958;BME280;15295;42.658;23.374;2023-09-30T03:53:48;95000.22;;;21.07;43.61
27958;BME280;15295;42.658;23.374;2023-09-30T03:56:17;94968.16;;;20.94;43.30
27958;BME280;15295;42.658;23.374;2023-09-30T03:58:54;94988.19;;;21.10;43.26
27958;BME280;15295;42.658;23.374;2023-09-30T04:01:30;94975.72;;;21.15;43.42
27958;BME280;15295;42.658;23.374;2023-09-30T04:04:19;95013.03;;;21.35;42.82
27958;BME280;15295;42.658;23.374;2023-09-30T04:07:13;95003.09;;;21.25;43.37
27958;BME280;15295;42.658;23.374;2023-09-30T04:10:05;95025.69;;;21.36;43.25
27958;BME280;15295;42.658;23.374;2023-09-30T04:12:53;95003.44;;;21.27;43.23
27958;BME280;15295;42.658;23.374;2023-09-30T04:15:34;95013.81;;;21.36;43.19
27958;BME280;15295;42.658;23.374;2023-09-30T04:18:01;94991.38;;;21.30;43.42
27958;BME280;15295;42.658;23.374;2023-09-30T04:20:57;95021.94;;;21.61;42.77
27958;BME280;15295;42.658;23.374;2023-09-30T04:23:23;94997.03;;;21.48;43.23
27958;BME280;15295;42.658;23.374;2023-09-30T04:26:24;95025.56;;;21.80;42.78
27958;BME280;15295;42.658;23.374;2023-09-30T04:29:46;95015.06;;;21.75;42.14
27958;BME280;15295;42.658;23.374;2023-09-30T04:32:37;95029.00;;;21.84;41.43
27958;BME280;15295;42.658;23.374;2023-09-30T04:35:24;95013.13;;;21.63;41.80
27958;BME280;15295;42.658;23.374;2023-09-30T04:38:08;95023.69;;;21.68;41.92
27958;BME280;15295;42.658;23.374;2023-09-30T04:40:49;95035.44;;;21.72;41.90
27958;BME280;15295;42.658;23.374;2023-09-30T04:43:19;95010.72;;;21.43;42.53
27958;BME280;15295;42.658;23.374;2023-09-30T04:46:27;95042.47;;;21.55;41.96
27958;BME280;15295;42.658;23.374;2023-09-30T04:49:20;95013.63;;;21.30;41.16
27958;BME280;15295;42.658;23.374;2023-09-30T04:51:53;95018.38;;;21.21;41.76
27958;BME280;15295;42.658;23.374;2023-09-30T04:54:25;95028.13;;;21.25;41.46
27958;BME280;15295;42.658;23.374;2023-09-30T04:56:54;95047.50;;;21.38;41.12
27958;BME280;15295;42.658;23.374;2023-09-30T04:59:20;95039.88;;;21.29;40.76
27958;BME280;15295;42.658;23.374;2023-09-30T05:01:52;95044.03;;;21.25;40.99
27958;BME280;15295;42.658;23.374;2023-09-30T05:05:08;95044.66;;;21.29;41.18
27958;BME280;15295;42.658;23.374;2023-09-30T05:08:00;95019.09;;;21.12;40.88
27958;BME280;15295;42.658;23.374;2023-09-30T05:10:49;95039.81;;;21.20;40.59
27958;BME280;15295;42.658;23.374;2023-09-30T05:13:28;95057.59;;;21.23;41.10
27958;BME280;15295;42.658;23.374;2023-09-30T05:16:07;95059.75;;;21.19;41.46
27958;BME280;15295;42.658;23.374;2023-09-30T05:19:08;95028.22;;;21.00;41.40
27958;BME280;15295;42.658;23.374;2023-09-30T05:21:35;95011.06;;;20.93;41.34
27958;BME280;15295;42.658;23.374;2023-09-30T05:24:20;95016.28;;;20.91;41.06
27958;BME280;15295;42.658;23.374;2023-09-30T05:26:54;95051.84;;;21.17;41.29
27958;BME280;15295;42.658;23.374;2023-09-30T05:29:38;95055.41;;;21.18;41.20
27958;BME280;15295;42.658;23.374;2023-09-30T05:32:27;95045.31;;;21.11;41.13
27958;BME280;15295;42.658;23.374;2023-09-30T05:34:58;95044.09;;;21.12;41.14
27958;BME280;15295;42.658;23.374;2023-09-30T05:37:48;95034.56;;;21.01;41.20
27958;BME280;15295;42.658;23.374;2023-09-30T05:40:30;95010.81;;;20.78;41.74
27958;BME280;15295;42.658;23.374;2023-09-30T05:43:07;95050.75;;;21.15;41.84
27958;BME280;15295;42.658;23.374;2023-09-30T05:45:54;95062.69;;;21.24;41.96
27958;BME280;15295;42.658;23.374;2023-09-30T05:48:40;95075.09;;;21.32;41.66
27958;BME280;15295;42.658;23.374;2023-09-30T05:51:19;95036.97;;;21.11;42.04
27958;BME280;15295;42.658;23.374;2023-09-30T05:54:13;95078.41;;;21.40;41.63
27958;BME280;15295;42.658;23.374;2023-09-30T05:56:43;95077.47;;;21.43;41.91
27958;BME280;15295;42.658;23.374;2023-09-30T05:59:12;95065.06;;;21.35;42.16
27958;BME280;15295;42.658;23.374;2023-09-30T06:01:43;95081.03;;;21.43;42.36
27958;BME280;15295;42.658;23.374;2023-09-30T06:04:31;95050.06;;;21.32;42.38
27958;BME280;15295;42.658;23.374;2023-09-30T06:07:00;95086.78;;;21.49;41.95
27958;BME280;15295;42.658;23.374;2023-09-30T06:09:25;95067.91;;;21.44;42.20
27958;BME280;15295;42.658;23.374;2023-09-30T06:11:55;95053.53;;;21.45;42.29
27958;BME280;15295;42.658;23.374;2023-09-30T06:14:39;95076.66;;;21.64;41.91
27958;BME280;15295;42.658;23.374;2023-09-30T06:17:11;95075.56;;;21.83;41.88
27958;BME280;15295;42.658;23.374;2023-09-30T06:19:40;95098.47;;;21.96;41.92
27958;BME280;15295;42.658;23.374;2023-09-30T06:22:12;95077.16;;;22.11;41.64
27958;BME280;15295;42.658;23.374;2023-09-30T06:24:40;95086.69;;;22.50;41.25
27958;BME280;15295;42.658;23.374;2023-09-30T06:27:07;95087.53;;;22.78;40.56
27958;BME280;15295;42.658;23.374;2023-09-30T06:29:39;95098.22;;;23.16;40.37
27958;BME280;15295;42.658;23.374;2023-09-30T06:32:09;95076.81;;;23.40;40.09
27958;BME280;15295;42.658;23.374;2023-09-30T06:34:35;95090.38;;;23.74;39.28
27958;BME280;15295;42.658;23.374;2023-09-30T06:37:26;95105.28;;;24.13;38.50
27958;BME280;15295;42.658;23.374;2023-09-30T06:39:59;95101.91;;;24.41;37.82
27958;BME280;15295;42.658;23.374;2023-09-30T06:42:38;95100.94;;;24.68;37.55
27958;BME280;15295;42.658;23.374;2023-09-30T06:45:41;95074.44;;;24.87;36.78
27958;BME280;15295;42.658;23.374;2023-09-30T06:48:51;95106.72;;;25.12;36.25
27958;BME280;15295;42.658;23.374;2023-09-30T06:51:32;95100.88;;;25.39;35.90
27958;BME280;15295;42.658;23.374;2023-09-30T06:54:04;95092.13;;;25.61;34.77
27958;BME280;15295;42.658;23.374;2023-09-30T06:56:41;95106.78;;;25.99;34.23
27958;BME280;15295;42.658;23.374;2023-09-30T06:59:22;95100.50;;;26.19;34.22
27958;BME280;15295;42.658;23.374;2023-09-30T07:02:11;95085.19;;;26.35;33.37
27958;BME280;15295;42.658;23.374;2023-09-30T07:04:40;95104.47;;;26.82;33.22
27958;BME280;15295;42.658;23.374;2023-09-30T07:07:06;95121.31;;;27.02;32.03
27958;BME280;15295;42.658;23.374;2023-09-30T07:09:34;95099.75;;;27.14;31.87
27958;BME280;15295;42.658;23.374;2023-09-30T07:12:05;95114.97;;;27.27;31.87
27958;BME280;15295;42.658;23.374;2023-09-30T07:14:31;95122.59;;;27.41;31.67
27958;BME280;15295;42.658;23.374;2023-09-30T07:16:56;95123.69;;;27.49;30.80
27958;BME280;15295;42.658;23.374;2023-09-30T07:19:24;95100.59;;;27.40;31.33
27958;BME280;15295;42.658;23.374;2023-09-30T07:21:51;95110.88;;;27.69;30.86
27958;BME280;15295;42.658;23.374;2023-09-30T07:24:16;95116.19;;;27.92;30.60
27958;BME280;15295;42.658;23.374;2023-09-30T07:26:46;95121.88;;;27.98;29.75
27958;BME280;15295;42.658;23.374;2023-09-30T07:29:59;95107.94;;;28.09;29.25
27958;BME280;15295;42.658;23.374;2023-09-30T07:32:44;95106.81;;;28.32;29.54
27958;BME280;15295;42.658;23.374;2023-09-30T07:35:17;95094.97;;;28.54;28.74
27958;BME280;15295;42.658;23.374;2023-09-30T07:37:51;95121.75;;;28.80;28.13
27958;BME280;15295;42.658;23.374;2023-09-30T07:43:56;95126.66;;;29.50;27.44
27958;BME280;15295;42.658;23.374;2023-09-30T07:46:29;95105.88;;;29.36;26.90
27958;BME280;15295;42.658;23.374;2023-09-30T07:48:57;95127.41;;;29.45;27.08
27958;BME280;15295;42.658;23.374;2023-09-30T07:51:26;95128.22;;;29.56;26.84
27958;BME280;15295;42.658;23.374;2023-09-30T07:53:53;95107.97;;;29.47;26.74
27958;BME280;15295;42.658;23.374;2023-09-30T07:56:21;95122.16;;;29.80;26.24
27958;BME280;15295;42.658;23.374;2023-09-30T07:59:18;95104.78;;;29.98;26.15
27958;BME280;15295;42.658;23.374;2023-09-30T08:01:54;95131.16;;;30.28;25.63
27958;BME280;15295;42.658;23.374;2023-09-30T08:04:20;95114.00;;;30.43;25.26
27958;BME280;15295;42.658;23.374;2023-09-30T08:07:09;95130.88;;;30.76;24.80
27958;BME280;15295;42.658;23.374;2023-09-30T08:09:36;95110.59;;;30.83;24.78
27958;BME280;15295;42.658;23.374;2023-09-30T08:12:11;95131.25;;;31.30;24.41
27958;BME280;15295;42.658;23.374;2023-09-30T08:14:37;95133.25;;;31.52;24.78
27958;BME280;15295;42.658;23.374;2023-09-30T08:17:09;95132.38;;;31.73;24.17
27958;BME280;15295;42.658;23.374;2023-09-30T08:19:35;95139.19;;;31.94;24.09
27958;BME280;15295;42.658;23.374;2023-09-30T08:22:01;95127.00;;;32.11;23.29
27958;BME280;15295;42.658;23.374;2023-09-30T08:24:28;95132.66;;;32.11;23.12
27958;BME280;15295;42.658;23.374;2023-09-30T08:26:55;95132.56;;;32.22;23.29
27958;BME280;15295;42.658;23.374;2023-09-30T08:29:23;95123.59;;;32.18;22.71
27958;BME280;15295;42.658;23.374;2023-09-30T08:31:49;95131.28;;;32.23;22.78
27958;BME280;15295;42.658;23.374;2023-09-30T08:34:16;95115.16;;;32.12;22.76
27958;BME280;15295;42.658;23.374;2023-09-30T08:36:45;95135.59;;;32.29;22.70
27958;BME280;15295;42.658;23.374;2023-09-30T08:39:10;95138.72;;;32.26;22.33
27958;BME280;15295;42.658;23.374;2023-09-30T08:41:36;95126.16;;;32.51;22.43
27958;BME280;15295;42.658;23.374;2023-09-30T08:44:03;95126.63;;;32.85;21.70
27958;BME280;15295;42.658;23.374;2023-09-30T08:46:34;95123.97;;;32.92;21.44
27958;BME280;15295;42.658;23.374;2023-09-30T08:49:03;95119.22;;;33.06;21.24
27958;BME280;15295;42.658;23.374;2023-09-30T08:51:31;95111.44;;;33.12;20.50
27958;BME280;15295;42.658;23.374;2023-09-30T08:54:05;95122.00;;;33.30;20.35
27958;BME280;15295;42.658;23.374;2023-09-30T08:56:31;95118.72;;;33.26;19.63
27958;BME280;15295;42.658;23.374;2023-09-30T08:59:03;95106.38;;;33.23;20.04
27958;BME280;15295;42.658;23.374;2023-09-30T09:01:31;95106.34;;;33.47;19.56
27958;BME280;15295;42.658;23.374;2023-09-30T09:03:57;95107.31;;;33.74;19.21
27958;BME280;15295;42.658;23.374;2023-09-30T09:06:24;95121.16;;;33.96;18.61
27958;BME280;15295;42.658;23.374;2023-09-30T09:08:51;95110.56;;;33.97;18.99
27958;BME280;15295;42.658;23.374;2023-09-30T09:11:17;95106.59;;;34.05;18.77
27958;BME280;15295;42.658;23.374;2023-09-30T09:13:48;95117.91;;;34.24;19.01
27958;BME280;15295;42.658;23.374;2023-09-30T09:16:22;95101.81;;;34.32;18.52
27958;BME280;15295;42.658;23.374;2023-09-30T09:18:53;95099.53;;;34.44;17.88
27958;BME280;15295;42.658;23.374;2023-09-30T09:21:25;95100.59;;;34.28;18.39
27958;BME280;15295;42.658;23.374;2023-09-30T09:23:54;95103.38;;;34.14;18.82
27958;BME280;15295;42.658;23.374;2023-09-30T09:26:30;95089.31;;;34.22;18.35
27958;BME280;15295;42.658;23.374;2023-09-30T09:29:01;95098.69;;;34.49;18.43
27958;BME280;15295;42.658;23.374;2023-09-30T09:31:29;95105.19;;;34.75;17.67
27958;BME280;15295;42.658;23.374;2023-09-30T09:34:13;95104.13;;;34.78;17.75
27958;BME280;15295;42.658;23.374;2023-09-30T09:36:43;95107.09;;;34.99;17.83
27958;BME280;15295;42.658;23.374;2023-09-30T09:39:12;95095.09;;;35.19;17.63
27958;BME280;15295;42.658;23.374;2023-09-30T09:41:52;95098.06;;;35.14;17.56
27958;BME280;15295;42.658;23.374;2023-09-30T09:44:20;95092.69;;;35.10;17.56
27958;BME280;15295;42.658;23.374;2023-09-30T09:46:47;95085.38;;;35.15;17.44
27958;BME280;15295;42.658;23.374;2023-09-30T09:49:16;95091.16;;;35.22;17.67
27958;BME280;15295;42.658;23.374;2023-09-30T09:51:43;95083.72;;;35.19;17.38
27958;BME280;15295;42.658;23.374;2023-09-30T09:54:11;95086.44;;;35.25;17.41
27958;BME280;15295;42.658;23.374;2023-09-30T09:56:39;95072.78;;;35.10;17.25
27958;BME280;15295;42.658;23.374;2023-09-30T09:59:05;95083.28;;;35.02;17.10
27958;BME280;15295;42.658;23.374;2023-09-30T10:01:33;95083.16;;;35.08;17.43
27958;BME280;15295;42.658;23.374;2023-09-30T10:04:04;95052.56;;;34.74;17.39
27958;BME280;15295;42.658;23.374;2023-09-30T10:06:30;95064.38;;;34.91;17.75
27958;BME280;15295;42.658;23.374;2023-09-30T10:08:58;95069.41;;;34.85;17.25
27958;BME280;15295;42.658;23.374;2023-09-30T10:11:25;95060.88;;;34.72;17.43
27958;BME280;15295;42.658;23.374;2023-09-30T10:13:57;95064.78;;;34.82;18.08
27958;BME280;15295;42.658;23.374;2023-09-30T10:16:46;95070.03;;;34.65;18.21
27958;BME280;15295;42.658;23.374;2023-09-30T10:19:14;95058.69;;;34.78;17.71
27958;BME280;15295;42.658;23.374;2023-09-30T10:24:59;95029.09;;;34.29;17.56
27958;BME280;15295;42.658;23.374;2023-09-30T10:27:34;95023.22;;;34.27;17.60
27958;BME280;15295;42.658;23.374;2023-09-30T10:30:07;95042.75;;;34.31;17.43
27958;BME280;15295;42.658;23.374;2023-09-30T10:40:50;95034.06;;;34.10;17.52
27958;BME280;15295;42.658;23.374;2023-09-30T10:43:32;95040.13;;;34.20;17.42
27958;BME280;15295;42.658;23.374;2023-09-30T10:45:59;95024.19;;;33.98;17.02
27958;BME280;15295;42.658;23.374;2023-09-30T10:48:34;95028.28;;;34.02;17.16
27958;BME280;15295;42.658;23.374;2023-09-30T10:51:10;95011.03;;;33.82;16.89
27958;BME280;15295;42.658;23.374;2023-09-30T10:57:29;95028.41;;;34.10;17.55
27958;BME280;15295;42.658;23.374;2023-09-30T11:00:19;95020.13;;;34.12;17.14
27958;BME280;15295;42.658;23.374;2023-09-30T11:02:51;95021.22;;;33.90;16.91
27958;BME280;15295;42.658;23.374;2023-09-30T11:05:25;95025.38;;;33.89;17.22
27958;BME280;15295;42.658;23.374;2023-09-30T11:07:52;95021.84;;;34.02;17.19
27958;BME280;15295;42.658;23.374;2023-09-30T11:10:19;95013.09;;;34.00;17.26
27958;BME280;15295;42.658;23.374;2023-09-30T11:13:05;95002.97;;;34.04;17.41
27958;BME280;15295;42.658;23.374;2023-09-30T11:15:44;95015.28;;;34.07;17.24
27958;BME280;15295;42.658;23.374;2023-09-30T11:18:18;94999.19;;;34.15;16.77
27958;BME280;15295;42.658;23.374;2023-09-30T11:20:44;95017.50;;;34.14;17.12
27958;BME280;15295;42.658;23.374;2023-09-30T11:23:10;95022.88;;;33.99;17.29
27958;BME280;15295;42.658;23.374;2023-09-30T11:25:40;95013.84;;;34.00;17.00
27958;BME280;15295;42.658;23.374;2023-09-30T11:28:21;95013.34;;;34.02;17.04
27958;BME280;15295;42.658;23.374;2023-09-30T11:31:00;95000.88;;;34.05;17.08
27958;BME280;15295;42.658;23.374;2023-09-30T11:33:31;95007.47;;;34.13;17.23
27958;BME280;15295;42.658;23.374;2023-09-30T11:36:15;94998.59;;;34.03;17.16
27958;BME280;15295;42.658;23.374;2023-09-30T11:38:50;95002.53;;;33.82;17.26
27958;BME280;15295;42.658;23.374;2023-09-30T11:41:51;95001.25;;;33.83;17.48
27958;BME280;15295;42.658;23.374;2023-09-30T11:44:18;94983.50;;;33.95;17.50
27958;BME280;15295;42.658;23.374;2023-09-30T11:46:55;95007.34;;;34.05;17.32
27958;BME280;15295;42.658;23.374;2023-09-30T11:49:30;94997.09;;;34.15;17.24
27958;BME280;15295;42.658;23.374;2023-09-30T11:51:57;94989.56;;;34.18;17.33
27958;BME280;15295;42.658;23.374;2023-09-30T11:54:40;94989.78;;;34.20;17.40
27958;BME280;15295;42.658;23.374;2023-09-30T11:57:11;94984.06;;;34.52;17.35
27958;BME280;15295;42.658;23.374;2023-09-30T11:59:38;94987.91;;;34.54;17.15
27958;BME280;15295;42.658;23.374;2023-09-30T12:02:08;94972.03;;;34.33;17.26
27958;BME280;15295;42.658;23.374;2023-09-30T12:04:46;94980.63;;;34.14;17.51
27958;BME280;15295;42.658;23.374;2023-09-30T12:07:22;94975.97;;;34.30;17.13
27958;BME280;15295;42.658;23.374;2023-09-30T12:09:48;94976.81;;;34.25;17.10
27958;BME280;15295;42.658;23.374;2023-09-30T12:12:13;94972.88;;;34.14;17.33
27958;BME280;15295;42.658;23.374;2023-09-30T12:14:40;94964.41;;;34.28;17.28
27958;BME280;15295;42.658;23.374;2023-09-30T12:17:05;94963.69;;;34.53;16.96
27958;BME280;15295;42.658;23.374;2023-09-30T12:19:31;94958.44;;;34.57;17.17
27958;BME280;15295;42.658;23.374;2023-09-30T12:21:58;94950.88;;;34.47;17.10
27958;BME280;15295;42.658;23.374;2023-09-30T12:24:23;94950.78;;;34.52;17.22
27958;BME280;15295;42.658;23.374;2023-09-30T12:26:51;94954.47;;;34.21;17.42
27958;BME280;15295;42.658;23.374;2023-09-30T12:29:21;94959.44;;;34.02;17.34
27958;BME280;15295;42.658;23.374;2023-09-30T12:31:49;94947.59;;;33.85;17.43
27958;BME280;15295;42.658;23.374;2023-09-30T12:34:15;94950.50;;;33.79;17.63
27958;BME280;15295;42.658;23.374;2023-09-30T12:36:41;94955.84;;;33.70;17.41
27958;BME280;15295;42.658;23.374;2023-09-30T12:39:08;94940.53;;;33.41;17.61
27958;BME280;15295;42.658;23.374;2023-09-30T12:41:43;94944.25;;;33.36;17.57
27958;BME280;15295;42.658;23.374;2023-09-30T12:44:09;94942.00;;;33.47;17.59
27958;BME280;15295;42.658;23.374;2023-09-30T12:46:36;94945.28;;;33.70;17.63
27958;BME280;15295;42.658;23.374;2023-09-30T12:49:06;94943.06;;;33.63;17.74
27958;BME280;15295;42.658;23.374;2023-09-30T12:51:32;94926.09;;;33.26;17.89
27958;BME280;15295;42.658;23.374;2023-09-30T12:53:58;94929.84;;;32.97;18.16
27958;BME280;15295;42.658;23.374;2023-09-30T12:56:25;94924.31;;;32.86;18.28
27958;BME280;15295;42.658;23.374;2023-09-30T12:58:52;94929.16;;;32.91;18.26
27958;BME280;15295;42.658;23.374;2023-09-30T13:01:23;94931.09;;;33.01;18.40
27958;BME280;15295;42.658;23.374;2023-09-30T13:04:01;94924.94;;;32.97;18.27
27958;BME280;15295;42.658;23.374;2023-09-30T13:06:34;94928.84;;;32.94;18.43
27958;BME280;15295;42.658;23.374;2023-09-30T13:09:01;94922.41;;;32.94;18.26
27958;BME280;15295;42.658;23.374;2023-09-30T13:11:32;94914.69;;;32.94;18.38
27958;BME280;15295;42.658;23.374;2023-09-30T13:13:59;94916.63;;;33.05;18.05
27958;BME280;15295;42.658;23.374;2023-09-30T13:16:32;94912.56;;;33.19;18.20
27958;BME280;15295;42.658;23.374;2023-09-30T13:18:57;94920.13;;;33.11;18.56
27958;BME280;15295;42.658;23.374;2023-09-30T13:21:23;94920.22;;;32.87;18.29
27958;BME280;15295;42.658;23.374;2023-09-30T13:23:48;94912.63;;;32.76;18.51
27958;BME280;15295;42.658;23.374;2023-09-30T13:26:14;94917.13;;;32.66;19.07
27958;BME280;15295;42.658;23.374;2023-09-30T13:28:40;94899.44;;;32.60;19.10
27958;BME280;15295;42.658;23.374;2023-09-30T13:31:07;94878.13;;;32.35;18.92
27958;BME280;15295;42.658;23.374;2023-09-30T13:33:34;94902.28;;;32.60;19.15
27958;BME280;15295;42.658;23.374;2023-09-30T13:35:59;94893.78;;;32.79;19.16
27958;BME280;15295;42.658;23.374;2023-09-30T13:38:26;94904.88;;;32.77;19.13
27958;BME280;15295;42.658;23.374;2023-09-30T13:40:52;94893.34;;;32.75;18.78
27958;BME280;15295;42.658;23.374;2023-09-30T13:43:17;94892.34;;;32.72;19.17
27958;BME280;15295;42.658;23.374;2023-09-30T13:45:43;94907.25;;;32.72;19.18
27958;BME280;15295;42.658;23.374;2023-09-30T13:48:10;94898.91;;;32.61;19.14
27958;BME280;15295;42.658;23.374;2023-09-30T13:50:36;94900.19;;;32.42;19.16
27958;BME280;15295;42.658;23.374;2023-09-30T13:53:03;94894.09;;;32.32;19.46